createdAt,value
2019-05-01T12:48:42.793Z,20.18
2019-05-01T12:49:42.774Z,20.27
2019-05-01T12:50:42.762Z,20.28
2019-05-01T12:51:42.766Z,20.27
2019-05-01T12:52:42.742Z,20.13
2019-05-01T12:53:42.728Z,20.09
2019-05-01T12:54:42.719Z,19.87
2019-05-01T12:55:42.730Z,20.08
2019-05-01T12:56:42.703Z,20.16
2019-05-01T12:57:42.685Z,20.10
2019-05-01T12:58:42.677Z,20.35
2019-05-01T12:59:42.669Z,20.34
2019-05-01T13:00:42.651Z,20.53
2019-05-01T13:01:42.656Z,20.59
2019-05-01T13:02:42.630Z,20.68
2019-05-01T13:03:42.635Z,20.69
2019-05-01T13:04:42.620Z,20.71
2019-05-01T13:05:42.595Z,20.62
2019-05-01T13:06:49.244Z,20.65
2019-05-01T13:07:43.571Z,20.86
2019-05-01T13:08:42.566Z,20.89
2019-05-01T13:09:42.555Z,20.84
2019-05-01T13:10:42.564Z,20.90
2019-05-01T13:11:42.538Z,20.91
2019-05-01T13:12:42.521Z,21.02
2019-05-01T13:13:42.517Z,20.95
2019-05-01T13:14:42.517Z,21.04
2019-05-01T13:15:42.493Z,21.06
2019-05-01T13:16:42.503Z,21.27
2019-05-01T13:17:42.468Z,21.26
2019-05-01T13:18:42.459Z,21.32
2019-05-01T13:19:43.433Z,21.39
2019-05-01T13:20:42.436Z,21.42
2019-05-01T13:21:42.429Z,21.39
2019-05-01T13:22:42.409Z,21.41
2019-05-01T13:23:42.415Z,21.45
2019-05-01T13:24:42.389Z,21.51
2019-05-01T13:25:42.375Z,21.54
2019-05-01T13:26:42.417Z,21.60
2019-05-01T13:27:42.358Z,21.71
2019-05-01T13:28:42.343Z,21.83
2019-05-01T13:29:42.339Z,21.85
2019-05-01T13:30:42.326Z,22.01
2019-05-01T13:31:42.332Z,22.01
2019-05-01T13:32:42.304Z,22.29
2019-05-01T13:33:42.328Z,22.29
2019-05-01T13:34:42.328Z,22.46
2019-05-01T13:35:42.265Z,22.69
2019-05-01T13:36:42.291Z,22.89
2019-05-01T13:37:42.262Z,22.99
2019-05-01T13:38:42.235Z,23.19
2019-05-01T13:39:42.223Z,23.34
2019-05-01T13:40:42.219Z,23.58
2019-05-01T13:41:42.213Z,23.83
2019-05-01T13:42:42.192Z,23.95
2019-05-01T13:43:42.179Z,24.12
2019-05-01T13:44:42.169Z,24.26
2019-05-01T13:45:42.173Z,24.29
2019-05-01T13:46:42.147Z,24.32
2019-05-01T13:47:42.152Z,24.44
2019-05-01T13:48:42.138Z,24.37
2019-05-01T13:49:42.114Z,24.50
2019-05-01T13:50:42.112Z,24.49
2019-05-01T13:51:42.095Z,24.60
2019-05-01T13:52:42.095Z,24.73
2019-05-01T13:53:42.072Z,24.79
2019-05-01T13:54:42.058Z,24.85
2019-05-01T13:55:42.167Z,24.90
2019-05-01T13:56:42.043Z,24.87
2019-05-01T13:57:42.043Z,24.95
2019-05-01T13:58:42.028Z,25.10
2019-05-01T13:59:42.002Z,25.19
2019-05-01T14:00:41.991Z,25.37
2019-05-01T14:01:42.002Z,25.44
2019-05-01T14:02:42.000Z,25.32
2019-05-01T14:03:42.035Z,25.20
2019-05-01T14:04:41.995Z,24.90
2019-05-01T14:05:42.028Z,24.69
2019-05-01T14:06:41.995Z,24.45
2019-05-01T14:07:41.931Z,24.34
2019-05-01T14:08:41.912Z,24.34
2019-05-01T14:09:42.576Z,24.23
2019-05-01T14:10:41.960Z,24.27
2019-05-01T14:11:41.996Z,24.35
2019-05-01T14:12:42.100Z,24.26
2019-05-01T14:13:41.918Z,24.38
2019-05-01T14:14:41.985Z,24.39
2019-05-01T14:15:41.866Z,24.37
2019-05-01T14:16:41.905Z,24.45
2019-05-01T14:17:42.008Z,24.49
2019-05-01T14:18:41.795Z,24.50
2019-05-01T14:19:41.890Z,24.54
2019-05-01T14:20:41.866Z,24.79
2019-05-01T14:21:41.831Z,24.82
2019-05-01T14:22:41.762Z,24.82
2019-05-01T14:23:41.760Z,24.82
2019-05-01T14:24:41.731Z,24.82
2019-05-01T14:25:41.718Z,24.97
2019-05-01T14:26:41.707Z,25.00
2019-05-01T14:27:41.712Z,25.02
2019-05-01T14:28:41.685Z,24.97
2019-05-01T14:29:41.674Z,24.82
2019-05-01T14:30:41.664Z,24.60
2019-05-01T14:31:41.660Z,24.44
2019-05-01T14:32:41.673Z,24.27
2019-05-01T14:33:41.630Z,24.05
2019-05-01T14:34:41.627Z,23.87
2019-05-01T14:35:41.610Z,23.77
2019-05-01T14:36:41.599Z,23.72
2019-05-01T14:37:41.591Z,23.64
2019-05-01T14:38:41.586Z,23.62
2019-05-01T14:39:41.578Z,23.65
2019-05-01T14:40:41.557Z,23.75
2019-05-01T14:41:41.546Z,23.67
2019-05-01T14:42:41.550Z,23.75
2019-05-01T14:43:41.542Z,23.82
2019-05-01T14:44:41.513Z,23.94
2019-05-01T14:45:41.507Z,23.85
2019-05-01T14:46:41.493Z,23.71
2019-05-01T14:47:41.482Z,23.77
2019-05-01T14:48:41.476Z,23.77
2019-05-01T14:49:41.468Z,23.67
2019-05-01T14:50:41.451Z,23.75
2019-05-01T14:51:41.451Z,23.75
2019-05-01T14:52:41.426Z,23.68
2019-05-01T14:53:41.431Z,23.64
2019-05-01T14:54:41.409Z,23.55
2019-05-01T14:55:41.427Z,23.61
2019-05-01T14:56:43.316Z,23.72
2019-05-01T14:57:41.407Z,23.76
2019-05-01T14:58:41.526Z,23.83
2019-05-01T14:59:41.349Z,23.76
2019-05-01T15:00:41.375Z,23.76
2019-05-01T15:01:41.327Z,23.77
2019-05-01T15:02:41.322Z,23.76
2019-05-01T15:03:41.319Z,23.58
2019-05-01T15:04:41.308Z,23.43
2019-05-01T15:05:41.285Z,23.32
2019-05-01T15:06:41.275Z,23.15
2019-05-01T15:07:43.559Z,23.02
2019-05-01T15:08:41.267Z,22.83
2019-05-01T15:09:41.275Z,22.65
2019-05-01T15:10:41.231Z,22.72
2019-05-01T15:11:41.218Z,22.52
2019-05-01T15:12:41.208Z,22.54
2019-05-01T15:13:41.203Z,22.60
2019-05-01T15:14:41.197Z,22.74
2019-05-01T15:15:41.172Z,22.77
2019-05-01T15:16:41.174Z,22.86
2019-05-01T15:17:41.151Z,22.89
2019-05-01T15:18:41.154Z,22.94
2019-05-01T15:19:41.142Z,22.86
2019-05-01T15:20:41.118Z,23.02
2019-05-01T15:21:41.147Z,23.27
2019-05-01T15:22:41.100Z,23.35
2019-05-01T15:23:53.126Z,23.42
2019-05-01T15:24:42.071Z,23.42
2019-05-01T15:25:41.074Z,23.31
2019-05-01T15:26:41.056Z,23.23
2019-05-01T15:27:41.068Z,23.26
2019-05-01T15:28:41.040Z,23.07
2019-05-01T15:29:41.018Z,23.02
2019-05-01T15:30:41.005Z,22.83
2019-05-01T15:31:40.996Z,22.65
2019-05-01T15:32:40.983Z,22.41
2019-05-01T15:33:41.000Z,22.17
2019-05-01T15:34:40.962Z,21.98
2019-05-01T15:35:40.966Z,21.83
2019-05-01T15:36:40.942Z,21.69
2019-05-01T15:37:40.933Z,21.53
2019-05-01T15:38:40.929Z,21.30
2019-05-01T15:39:40.914Z,21.13
2019-05-01T15:40:40.893Z,20.84
2019-05-01T15:41:40.917Z,20.61
2019-05-01T15:42:40.871Z,20.28
2019-05-01T15:43:40.868Z,19.95
2019-05-01T15:44:40.849Z,19.86
2019-05-01T15:45:40.844Z,19.66
2019-05-01T15:46:40.824Z,19.46
2019-05-01T15:47:40.841Z,19.40
2019-05-01T15:48:41.052Z,19.21
2019-05-01T15:49:40.797Z,19.18
2019-05-01T15:50:43.228Z,19.08
2019-05-01T15:51:40.797Z,18.98
2019-05-01T15:52:40.762Z,18.90
2019-05-01T15:53:40.762Z,18.87
2019-05-01T15:54:40.746Z,18.91
2019-05-01T15:55:40.724Z,18.82
2019-05-01T15:56:40.723Z,18.76
2019-05-01T15:57:40.702Z,18.73
2019-05-01T15:58:40.698Z,18.73
2019-05-01T15:59:40.691Z,18.73
2019-05-01T16:00:40.672Z,18.58
2019-05-01T16:01:40.658Z,18.50
2019-05-01T16:02:40.648Z,18.55
2019-05-01T16:03:40.636Z,18.47
2019-05-01T16:04:40.652Z,18.42
2019-05-01T16:05:40.631Z,18.33
2019-05-01T16:06:40.606Z,18.27
2019-05-01T16:07:40.603Z,18.18
2019-05-01T16:08:40.589Z,18.06
2019-05-01T16:09:40.579Z,17.97
2019-05-01T16:10:40.563Z,17.94
2019-05-01T16:11:40.554Z,17.84
2019-05-01T16:12:40.544Z,17.97
2019-05-01T16:13:40.523Z,17.89
2019-05-01T16:14:40.558Z,17.88
2019-05-01T16:15:40.505Z,17.97
2019-05-01T16:16:40.492Z,17.88
2019-05-01T16:17:40.478Z,17.81
2019-05-01T16:18:40.482Z,17.78
2019-05-01T16:19:40.468Z,17.71
2019-05-01T16:20:40.446Z,17.66
2019-05-01T16:21:40.433Z,17.57
2019-05-01T16:22:40.424Z,17.70
2019-05-01T16:23:40.411Z,17.59
2019-05-01T16:24:40.410Z,17.59
2019-05-01T16:25:40.393Z,17.66
2019-05-01T16:26:40.387Z,17.57
2019-05-01T16:27:40.385Z,17.51
2019-05-01T16:28:40.370Z,17.51
2019-05-01T16:29:40.354Z,17.44
2019-05-01T16:30:40.526Z,17.51
2019-05-01T16:31:40.319Z,17.44
2019-05-01T16:32:40.309Z,17.47
2019-05-01T16:33:40.301Z,17.46
2019-05-01T16:34:40.303Z,17.48
2019-05-01T16:35:40.273Z,17.44
2019-05-01T16:36:40.264Z,17.38
2019-05-01T16:37:40.252Z,17.41
2019-05-01T16:38:40.251Z,17.32
2019-05-01T16:39:40.257Z,17.32
2019-05-01T16:40:40.216Z,17.40
2019-05-01T16:41:40.289Z,17.29
2019-05-01T16:42:40.246Z,17.25
2019-05-01T16:43:40.197Z,17.26
2019-05-01T16:44:40.200Z,17.30
2019-05-01T16:45:40.173Z,17.17
2019-05-01T16:46:40.152Z,17.15
2019-05-01T16:47:40.141Z,17.29
2019-05-01T16:48:40.132Z,17.23
2019-05-01T16:49:40.122Z,17.23
2019-05-01T16:50:40.121Z,17.14
2019-05-01T16:51:40.104Z,17.26
2019-05-01T16:52:40.118Z,17.32
2019-05-01T16:53:40.075Z,17.13
2019-05-01T16:54:40.066Z,17.30
2019-05-01T16:55:40.118Z,17.18
2019-05-01T16:56:40.049Z,17.13
2019-05-01T16:57:40.030Z,17.20
2019-05-01T16:58:40.018Z,17.23
2019-05-01T16:59:40.022Z,17.07
2019-05-01T17:00:40.018Z,17.08
2019-05-01T17:01:39.999Z,16.96
2019-05-01T17:02:39.975Z,16.95
2019-05-01T17:03:39.970Z,16.89
2019-05-01T17:04:39.949Z,16.86
2019-05-01T17:05:39.951Z,16.83
2019-05-01T17:06:39.926Z,16.74
2019-05-01T17:07:39.921Z,16.73
2019-05-01T17:08:39.907Z,16.67
2019-05-01T17:09:39.974Z,16.75
2019-05-01T17:10:39.943Z,16.63
2019-05-01T17:11:39.917Z,16.73
2019-05-01T17:12:39.868Z,16.73
2019-05-01T17:13:39.851Z,16.58
2019-05-01T17:14:39.847Z,16.63
2019-05-01T17:15:39.840Z,16.73
2019-05-01T17:16:39.848Z,16.67
2019-05-01T17:17:39.809Z,16.73
2019-05-01T17:18:39.792Z,16.73
2019-05-01T17:19:39.781Z,16.73
2019-05-01T17:20:39.781Z,16.67
2019-05-01T17:21:39.761Z,16.62
2019-05-01T17:22:39.755Z,16.62
2019-05-01T17:23:39.734Z,16.58
2019-05-01T17:24:39.728Z,16.59
2019-05-01T17:25:39.722Z,16.58
2019-05-01T17:26:39.701Z,16.45
2019-05-01T17:27:39.691Z,16.41
2019-05-01T17:28:39.678Z,16.33
2019-05-01T17:29:39.670Z,16.40
2019-05-01T17:30:39.694Z,16.33
2019-05-01T17:31:39.643Z,16.35
2019-05-01T17:32:43.859Z,16.33
2019-05-01T17:33:39.622Z,16.35
2019-05-01T17:34:39.635Z,16.33
2019-05-01T17:35:41.685Z,16.25
2019-05-01T17:36:39.587Z,16.18
2019-05-01T17:37:39.578Z,16.23
2019-05-01T17:38:49.314Z,16.18
2019-05-01T17:39:40.586Z,16.18
2019-05-01T17:40:39.571Z,16.11
2019-05-01T17:41:39.530Z,16.12
2019-05-01T17:42:39.522Z,16.14
2019-05-01T17:43:39.512Z,16.14
2019-05-01T17:44:39.682Z,16.11
2019-05-01T17:45:39.485Z,16.12
2019-05-01T17:46:41.779Z,16.09
2019-05-01T17:47:40.460Z,16.07
2019-05-01T17:48:39.475Z,15.96
2019-05-01T17:49:41.023Z,15.97
2019-05-01T17:50:40.456Z,15.93
2019-05-01T17:51:42.708Z,15.89
2019-05-01T17:52:40.434Z,15.93
2019-05-01T17:53:39.408Z,15.82
2019-05-01T17:54:39.406Z,15.85
2019-05-01T17:55:39.393Z,15.84
2019-05-01T17:56:39.394Z,15.74
2019-05-01T17:57:39.360Z,15.82
2019-05-01T17:58:39.366Z,15.74
2019-05-01T17:59:39.368Z,15.72
2019-05-01T18:00:39.345Z,15.60
2019-05-01T18:01:39.384Z,15.60
2019-05-01T18:02:39.307Z,15.63
2019-05-01T18:03:39.313Z,15.51
2019-05-01T18:04:39.323Z,15.57
2019-05-01T18:05:39.292Z,15.49
2019-05-01T18:06:41.949Z,15.45
2019-05-01T18:07:40.282Z,15.51
2019-05-01T18:08:39.229Z,15.54
2019-05-01T18:09:39.235Z,15.43
2019-05-01T18:10:39.826Z,15.45
2019-05-01T18:11:39.276Z,15.43
2019-05-01T18:12:39.209Z,15.43
2019-05-01T18:13:39.178Z,15.35
2019-05-01T18:14:39.178Z,15.35
2019-05-01T18:15:39.177Z,15.35
2019-05-01T18:16:39.214Z,15.24
2019-05-01T18:17:39.125Z,15.30
2019-05-01T18:18:39.125Z,15.36
2019-05-01T18:19:39.118Z,15.27
2019-05-01T18:20:39.107Z,15.30
2019-05-01T18:21:39.120Z,15.20
2019-05-01T18:22:39.075Z,15.20
2019-05-01T18:23:42.741Z,15.13
2019-05-01T18:24:40.043Z,15.13
2019-05-01T18:25:39.033Z,15.21
2019-05-01T18:26:43.496Z,15.09
2019-05-01T18:27:40.007Z,15.08
2019-05-01T18:28:39.001Z,15.12
2019-05-01T18:29:39.733Z,15.05
2019-05-01T18:30:38.977Z,14.99
2019-05-01T18:31:38.982Z,15.05
2019-05-01T18:32:41.497Z,14.98
2019-05-01T18:33:39.945Z,15.08
2019-05-01T18:34:39.503Z,14.98
2019-05-01T18:35:38.944Z,15.01
2019-05-01T18:36:38.918Z,15.02
2019-05-01T18:37:38.898Z,14.95
2019-05-01T18:38:42.887Z,14.93
2019-05-01T18:39:39.873Z,14.88
2019-05-01T18:40:38.865Z,14.80
2019-05-01T18:41:38.859Z,14.81
2019-05-01T18:42:38.844Z,14.81
2019-05-01T18:43:38.971Z,14.71
2019-05-01T18:44:42.610Z,14.71
2019-05-01T18:45:39.807Z,14.75
2019-05-01T18:46:38.827Z,14.68
2019-05-01T18:47:38.786Z,14.64
2019-05-01T18:48:38.772Z,14.62
2019-05-01T18:49:38.834Z,14.54
2019-05-01T18:50:38.760Z,14.56
2019-05-01T18:51:40.757Z,14.52
2019-05-01T18:52:38.735Z,14.53
2019-05-01T18:53:38.748Z,14.50
2019-05-01T18:54:38.738Z,14.49
2019-05-01T18:55:38.722Z,14.39
2019-05-01T18:56:39.602Z,14.49
2019-05-01T18:57:38.714Z,14.35
2019-05-01T18:58:38.658Z,14.39
2019-05-01T18:59:38.650Z,14.39
2019-05-01T19:00:38.640Z,14.43
2019-05-01T19:01:38.627Z,14.39
2019-05-01T19:02:39.057Z,14.47
2019-05-01T19:03:42.468Z,14.35
2019-05-01T19:04:39.646Z,14.32
2019-05-01T19:05:38.584Z,14.32
2019-05-01T19:06:41.266Z,14.43
2019-05-01T19:07:38.568Z,14.34
2019-05-01T19:08:38.618Z,14.28
2019-05-01T19:09:38.542Z,14.31
2019-05-01T19:10:38.576Z,14.20
2019-05-01T19:11:38.627Z,14.24
2019-05-01T19:12:38.517Z,14.25
2019-05-01T19:13:38.497Z,14.19
2019-05-01T19:14:38.509Z,14.27
2019-05-01T19:15:38.471Z,14.12
2019-05-01T19:16:39.946Z,14.14
2019-05-01T19:17:39.484Z,14.17
2019-05-01T19:18:38.435Z,14.14
2019-05-01T19:19:38.439Z,14.07
2019-05-01T19:20:38.440Z,14.02
2019-05-01T19:21:41.876Z,14.04
2019-05-01T19:22:39.411Z,14.02
2019-05-01T19:23:38.377Z,13.99
2019-05-01T19:24:40.202Z,13.91
2019-05-01T19:25:38.352Z,13.99
2019-05-01T19:26:42.519Z,13.99
2019-05-01T19:27:38.356Z,13.98
2019-05-01T19:28:38.373Z,13.87
2019-05-01T19:29:38.311Z,13.88
2019-05-01T19:30:38.296Z,13.83
2019-05-01T19:31:38.286Z,13.87
2019-05-01T19:32:38.289Z,13.83
2019-05-01T19:33:38.265Z,13.83
2019-05-01T19:34:38.252Z,13.80
2019-05-01T19:35:38.242Z,13.84
2019-05-01T19:36:40.370Z,13.76
2019-05-01T19:37:39.236Z,13.70
2019-05-01T19:38:38.212Z,13.76
2019-05-01T19:39:43.827Z,13.69
2019-05-01T19:40:39.199Z,13.63
2019-05-01T19:41:38.179Z,13.67
2019-05-01T19:42:40.070Z,13.59
2019-05-01T19:43:40.336Z,13.51
2019-05-01T19:44:38.175Z,13.41
2019-05-01T19:45:38.140Z,13.43
2019-05-01T19:46:38.631Z,13.51
2019-05-01T19:47:38.125Z,13.52
2019-05-01T19:48:38.126Z,13.46
2019-05-01T19:49:38.087Z,13.46
2019-05-01T19:50:40.004Z,13.38
2019-05-01T19:51:39.067Z,13.40
2019-05-01T19:52:39.832Z,13.41
2019-05-01T19:53:38.047Z,13.32
2019-05-01T19:54:38.033Z,13.27
2019-05-01T19:55:39.895Z,13.22
2019-05-01T19:56:39.001Z,13.25
2019-05-01T19:57:37.992Z,13.17
2019-05-01T19:58:38.038Z,13.17
2019-05-01T19:59:37.979Z,13.07
2019-05-01T20:00:37.955Z,13.09
2019-05-01T20:01:43.737Z,13.02
2019-05-01T20:02:38.951Z,13.02
2019-05-01T20:03:38.611Z,12.99
2019-05-01T20:04:37.914Z,13.00
2019-05-01T20:05:37.963Z,13.02
2019-05-01T20:06:39.959Z,13.00
2019-05-01T20:07:37.875Z,12.93
2019-05-01T20:08:37.889Z,12.88
2019-05-01T20:09:37.857Z,12.96
2019-05-01T20:10:37.852Z,12.88
2019-05-01T20:11:37.836Z,12.87
2019-05-01T20:12:37.822Z,12.84
2019-05-01T20:13:37.854Z,12.84
2019-05-01T20:14:37.801Z,12.81
2019-05-01T20:15:37.796Z,12.74
2019-05-01T20:16:37.774Z,12.88
2019-05-01T20:17:37.762Z,12.69
2019-05-01T20:18:37.762Z,12.82
2019-05-01T20:19:37.739Z,12.82
2019-05-01T20:20:37.734Z,12.74
2019-05-01T20:21:37.724Z,12.67
2019-05-01T20:22:37.708Z,12.79
2019-05-01T20:23:37.717Z,12.81
2019-05-01T20:24:39.940Z,12.67
2019-05-01T20:25:38.681Z,12.64
2019-05-01T20:26:37.664Z,12.66
2019-05-01T20:27:40.158Z,12.64
2019-05-01T20:28:37.683Z,12.56
2019-05-01T20:29:37.628Z,12.67
2019-05-01T20:30:37.622Z,12.59
2019-05-01T20:31:37.606Z,12.62
2019-05-01T20:32:37.593Z,12.60
2019-05-01T20:33:38.615Z,12.49
2019-05-01T20:34:37.572Z,12.59
2019-05-01T20:35:37.634Z,12.52
2019-05-01T20:36:37.546Z,12.57
2019-05-01T20:37:37.602Z,12.57
2019-05-01T20:38:37.535Z,12.56
2019-05-01T20:39:37.569Z,12.39
2019-05-01T20:40:37.501Z,12.49
2019-05-01T20:41:37.491Z,12.39
2019-05-01T20:42:37.495Z,12.45
2019-05-01T20:43:42.876Z,12.39
2019-05-01T20:44:38.475Z,12.42
2019-05-01T20:45:37.473Z,12.30
2019-05-01T20:46:37.436Z,12.33
2019-05-01T20:48:13.718Z,12.27
2019-05-01T20:48:38.434Z,12.24
2019-05-01T20:49:41.359Z,12.24
2019-05-01T20:50:38.411Z,12.24
2019-05-01T20:51:37.400Z,12.24
2019-05-01T20:52:37.545Z,12.27
2019-05-01T20:53:37.359Z,12.24
2019-05-01T20:54:37.354Z,12.16
2019-05-01T20:55:37.332Z,12.21
2019-05-01T20:56:37.324Z,12.24
2019-05-01T20:57:37.314Z,12.24
2019-05-01T20:58:37.305Z,12.20
2019-05-01T20:59:39.231Z,12.09
2019-05-01T21:00:37.282Z,12.08
2019-05-01T21:01:37.269Z,12.08
2019-05-01T21:02:38.905Z,12.15
2019-05-01T21:03:38.242Z,12.08
2019-05-01T21:04:37.239Z,12.19
2019-05-01T21:05:37.215Z,12.13
2019-05-01T21:06:39.188Z,12.08
2019-05-01T21:07:38.203Z,12.11
2019-05-01T21:08:39.340Z,12.04
2019-05-01T21:09:47.187Z,12.05
2019-05-01T21:10:50.021Z,12.05
2019-05-01T21:11:42.216Z,12.02
2019-05-01T21:12:38.149Z,12.01
2019-05-01T21:13:37.130Z,11.93
2019-05-01T21:14:37.124Z,11.93
2019-05-01T21:15:37.144Z,11.85
2019-05-01T21:16:39.191Z,11.90
2019-05-01T21:17:37.079Z,11.78
2019-05-01T21:18:37.081Z,11.87
2019-05-01T21:19:37.767Z,11.77
2019-05-01T21:20:37.045Z,11.72
2019-05-01T21:21:37.033Z,11.75
2019-05-01T21:22:37.021Z,11.75
2019-05-01T21:23:37.027Z,11.71
2019-05-01T21:24:37.025Z,11.75
2019-05-01T21:25:36.988Z,11.71
2019-05-01T21:26:36.978Z,11.68
2019-05-01T21:27:37.007Z,11.65
2019-05-01T21:28:36.960Z,11.65
2019-05-01T21:29:36.951Z,11.65
2019-05-01T21:30:38.724Z,11.65
2019-05-01T21:31:37.924Z,11.61
2019-05-01T21:32:36.927Z,11.61
2019-05-01T21:33:40.851Z,11.59
2019-05-01T21:34:37.904Z,11.59
2019-05-01T21:35:36.888Z,11.62
2019-05-01T21:36:36.864Z,11.49
2019-05-01T21:37:36.853Z,11.44
2019-05-01T21:38:36.843Z,11.46
2019-05-01T21:39:36.851Z,11.50
2019-05-01T21:40:40.663Z,11.46
2019-05-01T21:41:36.806Z,11.50
2019-05-01T21:42:36.795Z,11.46
2019-05-01T21:43:37.195Z,11.49
2019-05-01T21:44:36.782Z,11.43
2019-05-01T21:45:36.761Z,11.46
2019-05-01T21:46:39.118Z,11.39
2019-05-01T21:47:36.756Z,11.39
2019-05-01T21:48:36.732Z,11.39
2019-05-01T21:49:36.739Z,11.38
2019-05-01T21:50:36.707Z,11.43
2019-05-01T21:51:37.146Z,11.29
2019-05-01T21:52:36.683Z,11.41
2019-05-01T21:53:37.312Z,11.32
2019-05-01T21:54:37.679Z,11.38
2019-05-01T21:55:36.646Z,11.31
2019-05-01T21:56:36.897Z,11.35
2019-05-01T21:57:40.116Z,11.29
2019-05-01T21:58:36.628Z,11.34
2019-05-01T21:59:39.688Z,11.31
2019-05-01T22:00:37.600Z,11.34
2019-05-01T22:01:36.578Z,11.29
2019-05-01T22:02:36.568Z,11.32
2019-05-01T22:03:36.565Z,11.28
2019-05-01T22:04:36.547Z,11.29
2019-05-01T22:05:39.580Z,11.29
2019-05-01T22:06:36.522Z,11.21
2019-05-01T22:07:36.513Z,11.17
2019-05-01T22:08:39.138Z,11.29
2019-05-01T22:09:36.540Z,11.27
2019-05-01T22:10:36.503Z,11.21
2019-05-01T22:11:37.780Z,11.25
2019-05-01T22:12:36.465Z,11.16
2019-05-01T22:13:36.444Z,11.17
2019-05-01T22:14:37.008Z,11.21
2019-05-01T22:15:36.438Z,11.17
2019-05-01T22:16:36.421Z,11.14
2019-05-01T22:17:36.534Z,11.16
2019-05-01T22:18:36.407Z,11.10
2019-05-01T22:19:36.374Z,11.11
2019-05-01T22:20:36.429Z,11.06
2019-05-01T22:21:36.366Z,11.13
2019-05-01T22:22:38.856Z,11.09
2019-05-01T22:23:37.350Z,10.99
2019-05-01T22:24:36.320Z,11.11
2019-05-01T22:25:36.316Z,11.07
2019-05-01T22:26:36.305Z,11.03
2019-05-01T22:27:36.286Z,11.03
2019-05-01T22:28:36.280Z,11.09
2019-05-01T22:29:36.264Z,11.10
2019-05-01T22:30:36.282Z,11.07
2019-05-01T22:31:36.243Z,11.11
2019-05-01T22:32:36.276Z,11.10
2019-05-01T22:33:36.238Z,11.06
2019-05-01T22:34:36.211Z,11.11
2019-05-01T22:35:36.208Z,11.14
2019-05-01T22:36:36.245Z,11.20
2019-05-01T22:37:36.172Z,11.03
2019-05-01T22:38:36.158Z,11.17
2019-05-01T22:39:36.148Z,11.16
2019-05-01T22:40:36.156Z,11.10
2019-05-01T22:41:36.123Z,11.14
2019-05-01T22:42:36.112Z,11.07
2019-05-01T22:43:36.114Z,11.06
2019-05-01T22:44:36.094Z,11.10
2019-05-01T22:45:36.099Z,11.02
2019-05-01T22:46:39.151Z,11.06
2019-05-01T22:47:36.061Z,11.10
2019-05-01T22:48:36.046Z,11.06
2019-05-01T22:49:36.036Z,11.02
2019-05-01T22:50:36.032Z,11.03
2019-05-01T22:51:36.010Z,11.03
2019-05-01T22:52:36.000Z,11.07
2019-05-01T22:53:35.998Z,11.09
2019-05-01T22:54:35.980Z,11.10
2019-05-01T22:55:35.969Z,10.99
2019-05-01T22:56:35.962Z,11.09
2019-05-01T22:57:35.955Z,11.03
2019-05-01T22:58:35.934Z,11.09
2019-05-01T22:59:35.923Z,11.07
2019-05-01T23:00:35.909Z,11.10
2019-05-01T23:01:35.931Z,11.09
2019-05-01T23:02:35.884Z,11.09
2019-05-01T23:03:40.537Z,11.06
2019-05-01T23:04:36.872Z,11.07
2019-05-01T23:05:35.859Z,11.13
2019-05-01T23:06:37.184Z,11.13
2019-05-01T23:07:36.847Z,11.17
2019-05-01T23:08:35.819Z,11.02
2019-05-01T23:09:35.806Z,11.10
2019-05-01T23:10:35.797Z,11.11
2019-05-01T23:11:35.793Z,11.03
2019-05-01T23:12:35.780Z,10.99
2019-05-01T23:13:35.763Z,11.10
2019-05-01T23:14:35.756Z,11.06
2019-05-01T23:15:35.744Z,11.09
2019-05-01T23:16:35.744Z,11.11
2019-05-01T23:17:39.480Z,11.01
2019-05-01T23:18:36.707Z,11.10
2019-05-01T23:19:35.702Z,11.09
2019-05-01T23:20:39.177Z,11.02
2019-05-01T23:21:35.687Z,11.01
2019-05-01T23:22:35.674Z,11.10
2019-05-01T23:23:35.671Z,10.98
2019-05-01T23:24:35.635Z,11.02
2019-05-01T23:25:36.626Z,11.02
2019-05-01T23:26:36.647Z,10.99
2019-05-01T23:27:35.622Z,11.01
2019-05-01T23:28:39.844Z,11.02
2019-05-01T23:29:36.580Z,11.02
2019-05-01T23:30:35.579Z,11.06
2019-05-01T23:31:35.580Z,10.96
2019-05-01T23:32:35.561Z,10.95
2019-05-01T23:33:35.548Z,10.95
2019-05-01T23:34:35.525Z,10.98
2019-05-01T23:35:35.513Z,10.95
2019-05-01T23:36:35.534Z,10.94
2019-05-01T23:37:35.497Z,10.95
2019-05-01T23:38:35.483Z,10.88
2019-05-01T23:39:40.520Z,10.91
2019-05-01T23:40:36.488Z,10.84
2019-05-01T23:41:45.649Z,10.92
2019-05-01T23:42:36.442Z,10.88
2019-05-01T23:43:35.424Z,10.91
2019-05-01T23:44:38.229Z,10.86
2019-05-01T23:45:36.402Z,10.80
2019-05-01T23:46:35.401Z,10.83
2019-05-01T23:47:35.399Z,10.83
2019-05-01T23:48:35.367Z,10.74
2019-05-01T23:49:35.359Z,10.76
2019-05-01T23:50:35.345Z,10.73
2019-05-01T23:51:35.348Z,10.71
2019-05-01T23:52:38.741Z,10.71
2019-05-01T23:53:35.337Z,10.60
2019-05-01T23:54:35.302Z,10.80
2019-05-01T23:55:35.287Z,10.65
2019-05-01T23:56:36.353Z,10.68
2019-05-01T23:57:35.268Z,10.68
2019-05-01T23:58:35.256Z,10.60
2019-05-01T23:59:35.242Z,10.59
